createdAt,value
2022-11-25T00:01:20.396Z,97187.41
2022-11-25T00:03:47.931Z,97190.00
2022-11-25T00:06:15.745Z,97196.88
2022-11-25T00:08:44.014Z,97191.75
2022-11-25T00:11:12.295Z,97199.50
2022-11-25T00:13:40.089Z,97192.75
2022-11-25T00:16:15.683Z,97187.56
2022-11-25T00:18:50.404Z,97174.41
2022-11-25T00:21:19.973Z,97173.53
2022-11-25T00:23:54.591Z,97183.75
2022-11-25T00:26:22.295Z,97177.69
2022-11-25T00:28:49.731Z,97175.13
2022-11-25T00:31:21.844Z,97178.63
2022-11-25T00:33:49.178Z,97168.38
2022-11-25T00:36:28.067Z,97175.31
2022-11-25T00:39:00.074Z,97184.13
2022-11-25T00:41:46.777Z,97184.03
2022-11-25T00:44:35.070Z,97190.00
2022-11-25T00:47:10.268Z,97191.09
2022-11-25T00:49:38.200Z,97190.91
2022-11-25T00:52:05.557Z,97201.34
2022-11-25T00:54:32.955Z,97205.72
2022-11-25T00:57:00.129Z,97209.00
2022-11-25T00:59:26.815Z,97213.38
2022-11-25T01:01:53.335Z,97207.63
2022-11-25T01:04:20.023Z,97214.72
2022-11-25T01:06:46.503Z,97208.69
2022-11-25T01:09:13.651Z,97209.34
2022-11-25T01:11:40.704Z,97204.88
2022-11-25T01:14:08.772Z,97201.41
2022-11-25T01:16:35.612Z,97212.59
2022-11-25T01:19:02.817Z,97212.69
2022-11-25T01:21:31.923Z,97209.59
2022-11-25T01:24:02.988Z,97214.13
2022-11-25T01:26:30.416Z,97215.78
2022-11-25T01:28:59.355Z,97202.78
2022-11-25T01:31:29.045Z,97210.38
2022-11-25T01:33:59.168Z,97211.38
2022-11-25T01:36:26.379Z,97203.38
2022-11-25T01:38:55.765Z,97209.31
2022-11-25T01:41:23.785Z,97199.00
2022-11-25T01:44:08.784Z,97200.00
2022-11-25T01:46:56.858Z,97202.00
2022-11-25T01:49:45.150Z,97206.47
2022-11-25T01:52:32.775Z,97207.63
2022-11-25T01:55:17.933Z,97203.94
2022-11-25T01:57:50.824Z,97201.47
2022-11-25T02:00:18.071Z,97204.88
2022-11-25T02:02:46.656Z,97198.53
2022-11-25T02:05:19.577Z,97197.69
2022-11-25T02:07:48.846Z,97197.78
2022-11-25T02:10:24.055Z,97195.16
2022-11-25T02:12:51.873Z,97193.50
2022-11-25T02:15:19.004Z,97199.63
2022-11-25T02:17:46.028Z,97189.44
2022-11-25T02:20:15.831Z,97196.25
2022-11-25T02:23:00.320Z,97186.25
2022-11-25T02:25:33.796Z,97183.59
2022-11-25T02:28:02.892Z,97179.53
2022-11-25T02:30:29.452Z,97183.22
2022-11-25T02:32:58.158Z,97177.22
2022-11-25T02:35:32.647Z,97177.19
2022-11-25T02:38:19.342Z,97180.63
2022-11-25T02:40:57.655Z,97190.50
2022-11-25T02:43:24.642Z,97184.69
2022-11-25T02:46:08.243Z,97183.81
2022-11-25T02:51:26.211Z,97188.03
2022-11-25T02:53:53.109Z,97191.41
2022-11-25T02:56:22.906Z,97187.16
2022-11-25T02:58:49.412Z,97188.81
2022-11-25T03:01:16.722Z,97182.91
2022-11-25T03:03:43.372Z,97188.72
2022-11-25T03:06:10.077Z,97192.16
2022-11-25T03:08:38.058Z,97182.75
2022-11-25T03:11:05.599Z,97187.91
2022-11-25T03:13:33.286Z,97192.31
2022-11-25T03:15:59.999Z,97201.91
2022-11-25T03:18:26.559Z,97193.41
2022-11-25T03:20:54.432Z,97195.75
2022-11-25T03:23:21.710Z,97185.69
2022-11-25T03:25:48.357Z,97190.75
2022-11-25T03:28:14.843Z,97193.50
2022-11-25T03:30:41.406Z,97193.50
2022-11-25T03:33:07.922Z,97196.13
2022-11-25T03:35:34.558Z,97190.16
2022-11-25T03:38:01.143Z,97197.94
2022-11-25T03:40:27.666Z,97190.34
2022-11-25T03:42:54.313Z,97192.84
2022-11-25T03:45:21.104Z,97187.88
2022-11-25T03:47:47.613Z,97197.97
2022-11-25T03:50:15.536Z,97195.47
2022-11-25T03:52:42.036Z,97203.44
2022-11-25T03:55:09.007Z,97194.88
2022-11-25T03:57:35.851Z,97205.25
2022-11-25T04:00:02.466Z,97211.22
2022-11-25T04:02:29.054Z,97205.06
2022-11-25T04:04:55.625Z,97205.84
2022-11-25T04:07:22.151Z,97199.81
2022-11-25T04:09:48.705Z,97200.59
2022-11-25T04:12:33.806Z,97191.22
2022-11-25T04:15:00.275Z,97194.75
2022-11-25T04:17:26.776Z,97192.16
2022-11-25T04:19:53.273Z,97190.38
2022-11-25T04:22:19.733Z,97185.22
2022-11-25T04:24:46.242Z,97190.53
2022-11-25T04:27:12.758Z,97185.38
2022-11-25T04:29:39.249Z,97181.88
2022-11-25T04:32:05.715Z,97182.75
2022-11-25T04:34:32.400Z,97177.75
2022-11-25T04:36:58.867Z,97178.50
2022-11-25T04:39:25.337Z,97179.19
2022-11-25T04:42:11.779Z,97181.69
2022-11-25T04:44:38.387Z,97193.88
2022-11-25T04:47:05.095Z,97187.09
2022-11-25T04:49:31.628Z,97200.94
2022-11-25T04:51:58.217Z,97207.97
2022-11-25T04:54:24.721Z,97209.72
2022-11-25T04:56:51.201Z,97209.00
2022-11-25T04:59:36.262Z,97201.22
2022-11-25T05:02:02.813Z,97213.34
2022-11-25T05:04:29.417Z,97211.72
2022-11-25T05:06:56.002Z,97217.63
2022-11-25T05:09:22.574Z,97225.19
2022-11-25T05:11:49.538Z,97220.09
2022-11-25T05:14:16.077Z,97223.47
2022-11-25T05:16:42.722Z,97230.28
2022-11-25T05:19:09.248Z,97218.38
2022-11-25T05:21:35.751Z,97222.59
2022-11-25T05:24:02.244Z,97221.44
2022-11-25T05:26:28.838Z,97215.19
2022-11-25T05:28:55.327Z,97214.34
2022-11-25T05:31:21.895Z,97224.53
2022-11-25T05:33:48.441Z,97223.75
2022-11-25T05:36:14.958Z,97227.16
2022-11-25T05:38:41.463Z,97228.91
2022-11-25T05:41:11.011Z,97226.31
2022-11-25T05:43:38.045Z,97236.59
2022-11-25T05:46:06.500Z,97235.84
2022-11-25T05:48:33.200Z,97227.97
2022-11-25T05:51:01.114Z,97233.06
2022-11-25T05:53:28.436Z,97231.28
2022-11-25T05:55:56.853Z,97224.38
2022-11-25T05:58:24.059Z,97230.16
2022-11-25T06:00:50.966Z,97237.06
2022-11-25T06:03:17.966Z,97237.03
2022-11-25T06:05:45.151Z,97237.78
2022-11-25T06:08:11.684Z,97238.56
2022-11-25T06:10:40.516Z,97232.66
2022-11-25T06:13:08.576Z,97240.19
2022-11-25T06:15:39.919Z,97237.56
2022-11-25T06:18:06.443Z,97250.44
2022-11-25T06:20:32.915Z,97256.47
2022-11-25T06:22:59.534Z,97256.47
2022-11-25T06:25:26.622Z,97257.25
2022-11-25T06:30:40.132Z,97241.97
2022-11-25T06:33:06.607Z,97240.59
2022-11-25T06:35:33.086Z,97246.16
2022-11-25T06:37:59.641Z,97258.97
2022-11-25T06:40:26.218Z,97259.53
2022-11-25T06:42:52.802Z,97267.59
2022-11-25T06:45:19.369Z,97268.59
2022-11-25T06:47:45.825Z,97264.34
2022-11-25T06:50:12.500Z,97260.09
2022-11-25T06:52:38.995Z,97262.88
2022-11-25T06:55:06.021Z,97253.94
2022-11-25T06:57:32.561Z,97252.94
2022-11-25T06:59:59.056Z,97267.38
2022-11-25T07:02:25.739Z,97268.09
2022-11-25T07:04:52.280Z,97267.22
2022-11-25T07:07:18.813Z,97270.25
2022-11-25T07:09:45.370Z,97266.25
2022-11-25T07:12:12.385Z,97272.00
2022-11-25T07:14:39.121Z,97257.06
2022-11-25T07:17:11.605Z,97261.19
2022-11-25T07:19:38.811Z,97267.56
2022-11-25T07:22:05.306Z,97270.44
2022-11-25T07:24:31.787Z,97266.16
2022-11-25T07:26:58.270Z,97268.97
2022-11-25T07:32:11.381Z,97262.44
2022-11-25T07:34:37.933Z,97252.84
2022-11-25T07:37:04.436Z,97241.44
2022-11-25T07:39:30.968Z,97254.16
2022-11-25T07:41:57.476Z,97263.03
2022-11-25T07:44:23.970Z,97272.44
2022-11-25T07:46:51.131Z,97265.13
2022-11-25T07:49:25.280Z,97260.56
2022-11-25T07:51:54.795Z,97261.28
2022-11-25T07:54:22.424Z,97254.22
2022-11-25T07:56:49.787Z,97248.00
2022-11-25T07:59:19.343Z,97263.19
2022-11-25T08:01:48.553Z,97258.31
2022-11-25T08:04:20.042Z,97260.13
2022-11-25T08:06:48.450Z,97261.66
2022-11-25T08:09:19.193Z,97248.94
2022-11-25T08:11:46.446Z,97249.22
2022-11-25T08:14:13.449Z,97245.97
2022-11-25T08:16:40.008Z,97262.09
2022-11-25T08:19:11.481Z,97260.81
2022-11-25T08:21:38.068Z,97265.78
2022-11-25T08:24:05.391Z,97263.06
2022-11-25T08:26:36.517Z,97271.53
2022-11-25T08:29:05.626Z,97280.84
2022-11-25T08:31:35.520Z,97279.56
2022-11-25T08:34:03.218Z,97276.03
2022-11-25T08:36:31.780Z,97272.19
2022-11-25T08:39:00.472Z,97271.47
2022-11-25T08:41:31.160Z,97277.66
2022-11-25T08:43:59.801Z,97285.25
2022-11-25T08:46:29.143Z,97288.13
2022-11-25T08:48:56.365Z,97283.91
2022-11-25T08:51:26.882Z,97288.06
2022-11-25T08:53:54.315Z,97293.66
2022-11-25T08:56:25.946Z,97291.72
2022-11-25T08:58:56.276Z,97290.09
2022-11-25T09:01:24.809Z,97306.41
2022-11-25T09:03:53.281Z,97298.84
2022-11-25T09:06:20.021Z,97292.81
2022-11-25T09:08:47.349Z,97291.53
2022-11-25T09:11:14.874Z,97292.59
2022-11-25T09:13:41.451Z,97286.03
2022-11-25T09:16:09.437Z,97291.25
2022-11-25T09:18:37.195Z,97286.09
2022-11-25T09:21:11.936Z,97282.28
2022-11-25T09:23:39.842Z,97286.47
2022-11-25T09:26:08.049Z,97289.28
2022-11-25T09:28:36.595Z,97281.94
2022-11-25T09:31:10.003Z,97281.72
2022-11-25T09:33:37.097Z,97274.28
2022-11-25T09:36:04.354Z,97285.81
2022-11-25T09:38:31.014Z,97279.72
2022-11-25T09:41:05.024Z,97279.84
2022-11-25T09:44:21.095Z,97282.72
2022-11-25T09:47:02.036Z,97287.69
2022-11-25T09:49:59.618Z,97276.56
2022-11-25T09:52:51.655Z,97283.06
2022-11-25T09:55:24.032Z,97283.84
2022-11-25T09:57:59.128Z,97277.94
2022-11-25T10:00:37.263Z,97270.75
2022-11-25T10:03:30.163Z,97275.41
2022-11-25T10:06:14.794Z,97288.75
2022-11-25T10:09:02.758Z,97289.50
2022-11-25T10:11:49.888Z,97288.84
2022-11-25T10:14:40.096Z,97287.06
2022-11-25T10:17:09.615Z,97278.28
2022-11-25T10:19:39.345Z,97278.09
2022-11-25T10:22:29.953Z,97283.13
2022-11-25T10:25:15.466Z,97281.66
2022-11-25T10:27:50.273Z,97282.25
2022-11-25T10:30:23.840Z,97285.97
2022-11-25T10:33:13.791Z,97296.09
2022-11-25T10:35:47.059Z,97295.75
2022-11-25T10:38:19.872Z,97292.22
2022-11-25T10:40:51.002Z,97287.38
2022-11-25T10:43:17.577Z,97286.19
2022-11-25T10:45:58.667Z,97287.25
2022-11-25T10:48:30.934Z,97287.06
2022-11-25T10:51:23.702Z,97289.88
2022-11-25T10:54:28.937Z,97290.91
2022-11-25T10:57:01.095Z,97294.31
2022-11-25T10:59:39.031Z,97289.00
2022-11-25T11:02:37.621Z,97290.41
2022-11-25T11:05:10.243Z,97282.94
2022-11-25T11:07:39.833Z,97282.56
2022-11-25T11:10:18.972Z,97276.50
2022-11-25T11:12:51.113Z,97274.25
2022-11-25T11:15:26.471Z,97278.53
2022-11-25T11:17:54.869Z,97279.31
2022-11-25T11:20:29.876Z,97277.53
2022-11-25T11:23:09.872Z,97279.06
2022-11-25T11:25:38.865Z,97276.00
2022-11-25T11:28:25.884Z,97284.97
2022-11-25T11:31:18.701Z,97285.84
2022-11-25T11:33:52.380Z,97281.38
2022-11-25T11:36:32.601Z,97284.94
2022-11-25T11:38:59.029Z,97278.06
2022-11-25T11:41:44.129Z,97284.63
2022-11-25T11:44:13.528Z,97287.59
2022-11-25T11:46:55.238Z,97291.59
2022-11-25T11:49:32.163Z,97300.84
2022-11-25T11:52:11.265Z,97301.53
2022-11-25T11:55:00.709Z,97296.31
2022-11-25T11:57:41.438Z,97293.94
2022-11-25T12:00:11.558Z,97296.34
2022-11-25T12:02:55.506Z,97291.50
2022-11-25T12:05:28.450Z,97294.56
2022-11-25T12:08:08.788Z,97296.03
2022-11-25T12:10:58.074Z,97291.28
2022-11-25T12:13:42.477Z,97296.03
2022-11-25T12:16:30.759Z,97287.59
2022-11-25T12:19:04.667Z,97281.25
2022-11-25T12:21:41.654Z,97280.41
2022-11-25T12:24:19.369Z,97283.81
2022-11-25T12:26:56.147Z,97282.44
2022-11-25T12:29:29.388Z,97279.97
2022-11-25T12:32:12.100Z,97283.81
2022-11-25T12:34:44.679Z,97282.19
2022-11-25T12:37:16.658Z,97280.38
2022-11-25T12:39:56.600Z,97285.09
2022-11-25T12:42:26.263Z,97275.75
2022-11-25T12:45:17.169Z,97283.50
2022-11-25T12:47:44.972Z,97274.28
2022-11-25T12:50:29.840Z,97276.47
2022-11-25T12:53:12.454Z,97270.16
2022-11-25T12:55:40.840Z,97273.09
2022-11-25T12:58:07.257Z,97282.44
2022-11-25T13:00:54.052Z,97275.06
2022-11-25T13:03:53.514Z,97262.50
2022-11-25T13:06:25.998Z,97269.09
2022-11-25T13:09:05.233Z,97272.34
2022-11-25T13:11:59.128Z,97261.84
2022-11-25T13:14:29.206Z,97258.16
2022-11-25T13:16:58.074Z,97259.44
2022-11-25T13:19:24.861Z,97250.84
2022-11-25T13:22:06.293Z,97253.00
2022-11-25T13:24:38.679Z,97246.75
2022-11-25T13:27:06.441Z,97255.22
2022-11-25T13:29:41.895Z,97260.19
2022-11-25T13:32:31.495Z,97274.94
2022-11-25T13:35:24.521Z,97269.78
2022-11-25T13:37:51.267Z,97269.56
2022-11-25T13:40:24.017Z,97281.47
2022-11-25T13:42:52.186Z,97273.69
2022-11-25T13:45:28.150Z,97276.66
2022-11-25T13:48:03.752Z,97271.88
2022-11-25T13:50:48.235Z,97273.59
2022-11-25T13:53:19.978Z,97278.59
2022-11-25T13:55:50.171Z,97282.78
2022-11-25T13:58:26.974Z,97276.13
2022-11-25T14:01:29.889Z,97277.22
2022-11-25T14:04:00.269Z,97279.34
2022-11-25T14:06:38.733Z,97276.50
2022-11-25T14:09:11.553Z,97277.56
2022-11-25T14:11:49.437Z,97275.09
2022-11-25T14:14:27.907Z,97278.63
2022-11-25T14:17:23.579Z,97280.56
2022-11-25T14:20:21.749Z,97288.53
2022-11-25T14:23:09.030Z,97294.97
2022-11-25T14:25:44.405Z,97289.94
2022-11-25T14:28:35.942Z,97295.91
2022-11-25T14:31:11.166Z,97304.38
2022-11-25T14:33:43.965Z,97303.81
2022-11-25T14:36:19.612Z,97310.47
2022-11-25T14:39:09.156Z,97309.25
2022-11-25T14:41:44.290Z,97312.50
2022-11-25T14:44:26.002Z,97310.59
2022-11-25T14:46:57.956Z,97309.81
2022-11-25T14:49:55.765Z,97312.25
2022-11-25T14:52:30.863Z,97321.50
2022-11-25T14:54:59.859Z,97322.31
2022-11-25T14:57:32.376Z,97320.00
2022-11-25T15:00:17.764Z,97326.47
2022-11-25T15:02:53.522Z,97321.88
2022-11-25T15:05:23.587Z,97322.22
2022-11-25T15:08:01.623Z,97329.44
2022-11-25T15:10:39.476Z,97330.88
2022-11-25T15:13:22.949Z,97328.66
2022-11-25T15:15:50.308Z,97332.78
2022-11-25T15:18:22.843Z,97329.81
2022-11-25T15:20:55.699Z,97327.88
2022-11-25T15:23:34.655Z,97324.56
2022-11-25T15:26:02.830Z,97334.88
2022-11-25T15:28:37.880Z,97337.56
2022-11-25T15:31:19.716Z,97333.31
2022-11-25T15:33:54.374Z,97340.72
2022-11-25T15:36:23.883Z,97346.59
2022-11-25T15:38:50.963Z,97349.06
2022-11-25T15:41:23.368Z,97348.59
2022-11-25T15:43:54.768Z,97346.06
2022-11-25T15:46:23.830Z,97357.22
2022-11-25T15:48:53.338Z,97360.75
2022-11-25T15:51:34.351Z,97363.03
2022-11-25T15:54:18.913Z,97366.31
2022-11-25T15:56:51.767Z,97371.69
2022-11-25T15:59:40.256Z,97385.72
2022-11-25T16:02:34.616Z,97385.78
2022-11-25T16:05:17.966Z,97386.81
2022-11-25T16:07:53.829Z,97385.94
2022-11-25T16:10:28.619Z,97388.47
2022-11-25T16:13:22.068Z,97399.94
2022-11-25T16:15:57.826Z,97414.53
2022-11-25T16:18:42.674Z,97415.69
2022-11-25T16:21:17.360Z,97420.00
2022-11-25T16:23:50.629Z,97418.22
2022-11-25T16:26:25.310Z,97417.50
2022-11-25T16:28:54.899Z,97425.44
2022-11-25T16:31:22.332Z,97429.28
2022-11-25T16:33:50.474Z,97432.91
2022-11-25T16:36:17.032Z,97432.53
2022-11-25T16:38:43.545Z,97443.28
2022-11-25T16:41:20.935Z,97439.31
2022-11-25T16:43:47.697Z,97453.31
2022-11-25T16:46:18.237Z,97448.28
2022-11-25T16:48:45.772Z,97457.00
2022-11-25T16:51:24.032Z,97454.16
2022-11-25T16:53:50.943Z,97455.63
2022-11-25T16:56:28.411Z,97453.59
2022-11-25T16:58:55.642Z,97456.59
2022-11-25T17:01:25.940Z,97467.56
2022-11-25T17:03:52.861Z,97473.53
2022-11-25T17:06:24.468Z,97476.91
2022-11-25T17:08:51.711Z,97488.09
2022-11-25T17:11:26.136Z,97488.88
2022-11-25T17:13:54.012Z,97490.53
2022-11-25T17:16:24.185Z,97490.53
2022-11-25T17:18:53.166Z,97489.94
2022-11-25T17:21:20.527Z,97490.25
2022-11-25T17:23:50.118Z,97493.03
2022-11-25T17:26:34.385Z,97487.13
2022-11-25T17:29:03.717Z,97494.00
2022-11-25T17:31:33.131Z,97492.13
2022-11-25T17:33:59.813Z,97500.78
2022-11-25T17:36:27.102Z,97498.09
2022-11-25T17:38:53.733Z,97523.28
2022-11-25T17:41:22.013Z,97518.88
2022-11-25T17:43:51.968Z,97515.19
2022-11-25T17:46:18.553Z,97512.69
2022-11-25T17:48:45.528Z,97528.34
2022-11-25T17:51:13.973Z,97532.75
2022-11-25T17:53:40.932Z,97536.16
2022-11-25T17:56:28.459Z,97545.34
2022-11-25T17:58:57.170Z,97535.75
2022-11-25T18:01:23.726Z,97536.72
2022-11-25T18:03:52.909Z,97549.22
2022-11-25T18:06:20.087Z,97554.28
2022-11-25T18:08:46.959Z,97560.31
2022-11-25T18:11:16.518Z,97563.78
2022-11-25T18:13:45.850Z,97562.75
2022-11-25T18:16:13.513Z,97561.22
2022-11-25T18:18:40.028Z,97563.78
2022-11-25T18:21:06.578Z,97567.84
2022-11-25T18:23:33.115Z,97568.78
2022-11-25T18:26:01.707Z,97580.03
2022-11-25T18:28:30.967Z,97583.66
2022-11-25T18:31:02.653Z,97592.31
2022-11-25T18:33:29.932Z,97599.13
2022-11-25T18:35:56.453Z,97594.78
2022-11-25T18:38:23.248Z,97602.66
2022-11-25T18:40:53.579Z,97605.16
2022-11-25T18:43:24.801Z,97609.47
2022-11-25T18:45:53.661Z,97610.94
2022-11-25T18:48:23.036Z,97615.25
2022-11-25T18:50:51.973Z,97623.13
2022-11-25T18:53:18.896Z,97626.53
2022-11-25T18:55:46.053Z,97625.56
2022-11-25T18:58:18.251Z,97626.22
2022-11-25T19:00:48.446Z,97625.00
2022-11-25T19:03:22.254Z,97633.34
2022-11-25T19:05:50.036Z,97644.28
2022-11-25T19:08:18.483Z,97642.91
2022-11-25T19:10:46.978Z,97646.19
2022-11-25T19:13:33.208Z,97639.88
2022-11-25T19:16:07.170Z,97641.47
2022-11-25T19:18:35.054Z,97643.09
2022-11-25T19:21:01.562Z,97646.66
2022-11-25T19:23:28.854Z,97648.09
2022-11-25T19:26:00.396Z,97653.25
2022-11-25T19:28:28.285Z,97652.28
2022-11-25T19:31:00.643Z,97653.94
2022-11-25T19:33:34.880Z,97658.97
2022-11-25T19:36:01.532Z,97660.50
2022-11-25T19:38:28.347Z,97661.94
2022-11-25T19:40:57.132Z,97660.72
2022-11-25T19:43:28.076Z,97668.41
2022-11-25T19:45:56.429Z,97669.25
2022-11-25T19:48:25.179Z,97673.50
2022-11-25T19:50:59.226Z,97674.09
2022-11-25T19:53:33.058Z,97681.69
2022-11-25T19:56:03.912Z,97685.00
2022-11-25T19:58:30.785Z,97688.34
2022-11-25T20:01:00.839Z,97693.72
2022-11-25T20:03:28.869Z,97696.25
2022-11-25T20:05:55.640Z,97707.56
2022-11-25T20:08:27.570Z,97703.88
2022-11-25T20:10:55.469Z,97707.25
2022-11-25T20:13:26.143Z,97715.75
2022-11-25T20:15:55.181Z,97710.59
2022-11-25T20:18:24.057Z,97719.19
2022-11-25T20:20:59.825Z,97717.53
2022-11-25T20:23:38.762Z,97719.25
2022-11-25T20:26:17.903Z,97727.09
2022-11-25T20:28:44.461Z,97730.34
2022-11-25T20:31:13.755Z,97740.88
2022-11-25T20:33:40.373Z,97740.03
2022-11-25T20:36:12.296Z,97746.97
2022-11-25T20:38:44.223Z,97753.16
2022-11-25T20:41:11.276Z,97749.59
2022-11-25T20:43:41.407Z,97758.25
2022-11-25T20:46:16.355Z,97766.19
2022-11-25T20:48:43.938Z,97770.66
2022-11-25T20:51:19.975Z,97775.13
2022-11-25T20:53:50.439Z,97785.63
2022-11-25T20:56:18.929Z,97781.34
2022-11-25T20:58:46.414Z,97795.44
2022-11-25T21:01:20.316Z,97798.69
2022-11-25T21:03:48.661Z,97796.81
2022-11-25T21:06:30.512Z,97802.91
2022-11-25T21:08:59.682Z,97807.13
2022-11-25T21:11:27.839Z,97813.41
2022-11-25T21:13:54.653Z,97818.00
2022-11-25T21:16:21.270Z,97825.72
2022-11-25T21:18:48.223Z,97822.41
2022-11-25T21:21:19.116Z,97830.34
2022-11-25T21:23:47.534Z,97830.34
2022-11-25T21:26:20.067Z,97839.91
2022-11-25T21:28:48.970Z,97832.94
2022-11-25T21:31:21.030Z,97837.38
2022-11-25T21:33:48.808Z,97836.75
2022-11-25T21:36:21.211Z,97845.00
2022-11-25T21:38:52.089Z,97850.47
2022-11-25T21:41:19.102Z,97857.59
2022-11-25T21:43:49.331Z,97861.16
2022-11-25T21:46:21.423Z,97858.56
2022-11-25T21:48:48.394Z,97862.91
2022-11-25T21:51:21.621Z,97866.47
2022-11-25T21:53:48.731Z,97871.75
2022-11-25T21:56:25.084Z,97873.53
2022-11-25T21:58:51.989Z,97876.16
2022-11-25T22:01:23.306Z,97883.81
2022-11-25T22:03:50.633Z,97885.38
2022-11-25T22:06:29.472Z,97886.88
2022-11-25T22:08:56.866Z,97892.91
2022-11-25T22:11:35.638Z,97898.13
2022-11-25T22:14:12.478Z,97907.59
2022-11-25T22:16:39.637Z,97911.13
2022-11-25T22:19:06.310Z,97910.34
2022-11-25T22:21:32.874Z,97910.22
2022-11-25T22:23:59.380Z,97916.31
2022-11-25T22:26:32.315Z,97913.81
2022-11-25T22:28:59.983Z,97916.53
2022-11-25T22:31:27.425Z,97921.69
2022-11-25T22:33:55.022Z,97925.13
2022-11-25T22:36:24.505Z,97928.53
2022-11-25T22:38:50.948Z,97930.41
2022-11-25T22:41:17.502Z,97932.22
2022-11-25T22:43:48.895Z,97939.22
2022-11-25T22:46:15.520Z,97945.28
2022-11-25T22:48:42.185Z,97940.88
2022-11-25T22:51:17.686Z,97938.34
2022-11-25T22:53:44.192Z,97938.25
2022-11-25T22:56:17.743Z,97943.47
2022-11-25T22:58:44.390Z,97947.78
2022-11-25T23:01:16.246Z,97947.69
2022-11-25T23:03:44.337Z,97949.38
2022-11-25T23:06:12.777Z,97950.25
2022-11-25T23:08:39.971Z,97949.38
2022-11-25T23:11:06.633Z,97945.84
2022-11-25T23:13:33.123Z,97950.19
2022-11-25T23:16:01.791Z,97961.44
2022-11-25T23:18:54.642Z,97962.09
2022-11-25T23:21:27.915Z,97961.88
2022-11-25T23:23:55.276Z,97966.91
2022-11-25T23:26:22.820Z,97963.72
2022-11-25T23:28:49.398Z,97964.44
2022-11-25T23:31:16.995Z,97965.38
2022-11-25T23:33:46.629Z,97959.56
2022-11-25T23:36:14.775Z,97961.44
2022-11-25T23:38:45.189Z,97970.41
2022-11-25T23:41:20.035Z,97975.00
2022-11-25T23:43:46.636Z,97982.16
2022-11-25T23:46:14.977Z,97980.22
2022-11-25T23:48:43.527Z,97977.47
2022-11-25T23:51:10.465Z,97983.41
2022-11-25T23:53:39.910Z,97983.47
2022-11-25T23:56:06.669Z,97980.22
2022-11-25T23:58:33.216Z,97978.44
